Pagina principale
METAR-TAF:

METAR-TAF

Aeroporti :

Capri, Italia

latitudine: 40-33N, longitudine: 014-12E, altezza: 160 m

Osservazione

Il bollettino è stato emesso 31 minuti fa, alle 14:55 UTC
Vento 13 kt da ovest
Temperature 14°C
Umidità 88%
Pressione 1010 hPa
Visibilità 10 km o più
Cielo coperto ad un'altezza di 2000 ft
pioggia debole

METAR: LIQC 091455Z 27013KT 9999 -RA OVC020 14/12 Q1010 RMK OVC QUK 3 QUL 1 W VIS MAR 12 KM VIS MIN 9999

Ora: 16:26 (15:26 UTC)


TAF: mancante

Osservazioni e previsioni meteorologiche di più di 4000 aeroporti (messaggi METAR e TAF).

Le stazioni disponibili sono rappresentate dai dischi gialli e rossi sulla carta.

Puntare il mouse per vedere il nome della stazione.

Clicca sopra per visualizzare le osservazioni e previsioni meteorologiche.

Per cambiare la mappa : fare clic sui pulsanti verdi con una croce nera per ingrandire, il pulsante verde con un trattino per diminuire, o sulla freccia verde per le mappe adiacenti.


METAR-TAF: